Time;durP1;ratioP1;P1;durP2;ratioP2;P2;SDS_P1;SDS_P2;PMS_P1;PMS_P2;Temp;Humidity;BMP_temperature;BMP_pressure;BME280_temperature;BME280_humidity;BME280_pressure;Samples;Min_cycle;Max_cycle;Signal;HPM_P1;HPM_P2
2022/08/07 00:01:22;;;;;;;;;;;17.80;87.30;;;;;;5053112;28;20206;-62
2022/08/07 00:04:10;;;;;;;;;;;17.80;87.20;;;;;;5055618;28;20179;-62
2022/08/07 00:06:42;;;;;;;;;;;17.80;87.60;;;;;;5058335;28;20688;-62
2022/08/07 00:09:19;;;;;;;;;;;17.70;87.50;;;;;;5053540;28;20234;-62
2022/08/07 00:11:49;;;;;;;;;;;17.70;87.50;;;;;;5051043;28;20683;-63
2022/08/07 00:14:29;;;;;;;;;;;17.70;87.60;;;;;;5053958;28;20114;-63
2022/08/07 00:16:59;;;;;;;;;;;17.70;87.90;;;;;;5053055;28;25075;-63
2022/08/07 00:19:30;;;;;;;;;;;17.60;87.50;;;;;;5052917;28;20589;-62
2022/08/07 00:22:18;;;;;;;;;;;17.60;87.60;;;;;;5052722;28;20708;-63
2022/08/07 00:25:02;;;;;;;;;;;17.60;87.80;;;;;;5055124;28;20204;-62
2022/08/07 00:27:31;;;;;;;;;;;17.50;87.90;;;;;;5052518;28;20235;-63
2022/08/07 00:30:20;;;;;;;;;;;17.50;87.90;;;;;;5058383;28;20280;-63
2022/08/07 00:32:54;;;;;;;;;;;17.60;87.90;;;;;;5071793;28;20197;-62
2022/08/07 00:35:22;;;;;;;;;;;17.50;87.80;;;;;;5053033;28;20684;-62
2022/08/07 00:37:50;;;;;;;;;;;17.50;87.40;;;;;;5065944;28;25053;-62
2022/08/07 00:40:18;;;;;;;;;;;17.60;87.70;;;;;;5071283;28;20503;-60
2022/08/07 00:43:06;;;;;;;;;;;17.60;87.80;;;;;;5061755;28;20215;-61
2022/08/07 00:45:42;;;;;;;;;;;17.60;87.70;;;;;;5052361;28;25090;-61
2022/08/07 00:48:13;;;;;;;;;;;17.60;87.90;;;;;;5059200;28;20064;-61
2022/08/07 00:50:41;;;;;;;;;;;17.60;88.10;;;;;;5050236;28;20220;-61
2022/08/07 00:53:18;;;;;;;;;;;17.50;87.90;;;;;;5052697;28;20689;-61
2022/08/07 00:55:47;;;;;;;;;;;17.50;87.70;;;;;;5058813;28;20074;-61
2022/08/07 00:58:29;;;;;;;;;;;17.50;87.60;;;;;;5064609;28;20201;-61
2022/08/07 01:00:58;;;;;;;;;;;17.50;88.00;;;;;;5056551;28;20576;-61
2022/08/07 01:03:26;;;;;;;;;;;17.50;87.70;;;;;;5063625;28;20210;-61
2022/08/07 01:06:14;;;;;;;;;;;17.50;88.00;;;;;;5057590;28;20199;-61
2022/08/07 01:08:42;;;;;;;;;;;17.50;88.50;;;;;;5051647;28;20838;-61
2022/08/07 01:11:22;;;;;;;;;;;17.40;88.10;;;;;;5059373;28;20225;-61
2022/08/07 01:14:09;;;;;;;;;;;17.40;88.10;;;;;;5052304;28;20147;-61
2022/08/07 01:16:39;;;;;;;;;;;17.40;88.40;;;;;;5052276;28;20609;-61
2022/08/07 01:19:10;;;;;;;;;;;17.40;88.60;;;;;;5052462;28;20095;-61
2022/08/07 01:21:48;;;;;;;;;;;17.40;88.90;;;;;;5051246;28;20229;-61
2022/08/07 01:24:20;;;;;;;;;;;17.40;88.80;;;;;;5052352;28;20208;-61
2022/08/07 01:26:50;;;;;;;;;;;17.30;88.90;;;;;;5051860;28;20206;-62
2022/08/07 01:29:19;;;;;;;;;;;17.30;89.10;;;;;;5052027;28;20100;-61
2022/08/07 01:31:48;;;;;;;;;;;17.30;89.50;;;;;;5052020;28;20220;-61
2022/08/07 01:34:17;;;;;;;;;;;17.30;89.40;;;;;;5051969;28;20196;-62
2022/08/07 01:36:48;;;;;;;;;;;17.20;89.90;;;;;;5052656;28;20206;-61
2022/08/07 01:39:24;;;;;;;;;;;17.20;89.50;;;;;;5052606;28;20675;-61
2022/08/07 01:42:13;;;;;;;;;;;17.20;89.80;;;;;;5051808;28;20276;-61
2022/08/07 01:45:00;;;;;;;;;;;17.20;89.90;;;;;;5050038;28;20128;-62
2022/08/07 01:47:29;;;;;;;;;;;17.10;90.00;;;;;;5054372;28;25064;-62
2022/08/07 01:50:17;;;;;;;;;;;17.20;90.10;;;;;;5049813;28;20147;-62
2022/08/07 01:52:58;;;;;;;;;;;17.10;90.10;;;;;;5059739;28;20230;-62
2022/08/07 01:55:27;;;;;;;;;;;17.10;90.30;;;;;;5050894;28;20598;-62
2022/08/07 01:57:55;;;;;;;;;;;17.10;90.30;;;;;;5056012;28;20107;-62
2022/08/07 02:00:44;;;;;;;;;;;17.00;90.40;;;;;;5043523;28;20272;-62
2022/08/07 02:03:18;;;;;;;;;;;17.00;90.50;;;;;;5055848;28;20190;-61
2022/08/07 02:05:55;;;;;;;;;;;17.00;90.70;;;;;;5049098;28;20996;-63
2022/08/07 02:08:29;;;;;;;;;;;17.00;91.00;;;;;;5053518;28;20205;-61
2022/08/07 02:10:58;;;;;;;;;;;16.90;90.90;;;;;;5055689;28;20214;-61
2022/08/07 02:13:26;;;;;;;;;;;16.90;91.20;;;;;;5052498;28;20230;-61
2022/08/07 02:16:16;;;;;;;;;;;16.80;91.10;;;;;;5064750;28;20300;-62
2022/08/07 02:18:47;;;;;;;;;;;16.80;91.30;;;;;;5062563;28;20730;-61
2022/08/07 02:21:18;;;;;;;;;;;16.70;91.40;;;;;;5057730;28;20070;-61
2022/08/07 02:23:47;;;;;;;;;;;16.70;91.30;;;;;;5050014;28;20219;-61
2022/08/07 02:26:17;;;;;;;;;;;16.70;91.60;;;;;;5054487;28;20255;-61
2022/08/07 02:29:02;;;;;;;;;;;16.60;91.70;;;;;;5052466;28;20631;-61
2022/08/07 02:31:30;;;;;;;;;;;16.60;91.90;;;;;;5060201;28;20229;-61
2022/08/07 02:34:00;;;;;;;;;;;16.60;91.90;;;;;;5053518;28;20636;-61
2022/08/07 02:36:30;;;;;;;;;;;16.50;91.90;;;;;;5053992;28;20207;-62
2022/08/07 02:39:02;;;;;;;;;;;16.50;92.10;;;;;;5061889;28;20200;-62
2022/08/07 02:41:44;;;;;;;;;;;16.50;92.40;;;;;;5054001;28;20198;-61
2022/08/07 02:44:21;;;;;;;;;;;16.50;92.30;;;;;;5058106;28;20272;-62
2022/08/07 02:46:54;;;;;;;;;;;16.40;92.40;;;;;;5058246;28;20205;-61
2022/08/07 02:49:23;;;;;;;;;;;16.40;92.30;;;;;;5069020;28;20237;-61
2022/08/07 02:52:13;;;;;;;;;;;16.40;92.50;;;;;;5060267;28;20192;-62
2022/08/07 02:54:43;;;;;;;;;;;16.40;92.60;;;;;;5054668;28;20285;-61
2022/08/07 02:57:15;;;;;;;;;;;16.30;92.60;;;;;;5053778;28;20212;-61
2022/08/07 02:59:47;;;;;;;;;;;16.30;92.70;;;;;;5053816;28;20202;-61
2022/08/07 03:02:28;;;;;;;;;;;16.20;92.70;;;;;;5063604;28;20201;-60
2022/08/07 03:04:56;;;;;;;;;;;16.20;93.00;;;;;;5060070;28;20688;-61
2022/08/07 03:07:24;;;;;;;;;;;16.20;93.10;;;;;;5056325;28;20195;-61
2022/08/07 03:10:13;;;;;;;;;;;16.20;93.00;;;;;;5059576;28;20246;-61
2022/08/07 03:12:41;;;;;;;;;;;16.20;93.20;;;;;;5061081;28;20664;-61
2022/08/07 03:15:10;;;;;;;;;;;16.20;93.20;;;;;;5059746;28;20314;-61
2022/08/07 03:17:38;;;;;;;;;;;16.20;93.20;;;;;;5061355;28;20663;-61
2022/08/07 03:20:21;;;;;;;;;;;16.20;93.30;;;;;;5056410;28;20176;-61
2022/08/07 03:22:50;;;;;;;;;;;16.20;93.30;;;;;;5055679;28;20220;-61
2022/08/07 03:25:19;;;;;;;;;;;16.20;93.40;;;;;;5045028;23;20227;-65
2022/08/07 03:27:48;;;;;;;;;;;16.20;93.30;;;;;;5020182;28;20786;-64
2022/08/07 03:30:37;;;;;;;;;;;16.20;93.20;;;;;;5021699;28;20111;-65
2022/08/07 03:33:07;;;;;;;;;;;16.20;93.30;;;;;;5012857;28;20199;-64
2022/08/07 03:35:38;;;;;;;;;;;16.10;93.30;;;;;;5008279;28;20724;-64
2022/08/07 03:38:17;;;;;;;;;;;16.10;93.50;;;;;;5007025;28;20093;-65
2022/08/07 03:40:51;;;;;;;;;;;16.10;93.40;;;;;;5008994;28;20223;-64
2022/08/07 03:43:24;;;;;;;;;;;16.10;93.60;;;;;;5006831;28;20282;-65
2022/08/07 03:45:53;;;;;;;;;;;16.10;93.70;;;;;;5009827;28;20289;-64
2022/08/07 03:48:21;;;;;;;;;;;16.10;93.70;;;;;;5012612;28;20101;-64
2022/08/07 03:50:49;;;;;;;;;;;16.10;93.70;;;;;;5010544;28;20073;-64
2022/08/07 03:53:24;;;;;;;;;;;16.10;94.20;;;;;;5011265;28;20195;-65
2022/08/07 03:56:15;;;;;;;;;;;16.00;93.90;;;;;;5008240;28;20306;-64
2022/08/07 03:59:00;;;;;;;;;;;16.00;94.00;;;;;;5005633;28;20188;-64
2022/08/07 04:01:44;;;;;;;;;;;16.00;94.10;;;;;;5006810;28;20669;-65
2022/08/07 04:04:15;;;;;;;;;;;16.00;94.20;;;;;;5007447;28;20200;-65
2022/08/07 04:06:44;;;;;;;;;;;16.00;94.40;;;;;;5010151;28;20202;-64
2022/08/07 04:09:12;;;;;;;;;;;15.90;94.30;;;;;;5007869;28;20197;-65
2022/08/07 04:11:44;;;;;;;;;;;15.90;94.70;;;;;;5007946;28;20315;-64
2022/08/07 04:14:34;;;;;;;;;;;15.90;94.60;;;;;;5011306;28;20200;-65
2022/08/07 04:17:11;;;;;;;;;;;15.90;94.70;;;;;;5007747;28;20213;-65
2022/08/07 04:19:48;;;;;;;;;;;15.90;94.90;;;;;;5009444;28;20081;-65
2022/08/07 04:22:23;;;;;;;;;;;15.90;94.80;;;;;;5009015;28;20527;-65
2022/08/07 04:24:57;;;;;;;;;;;15.90;95.10;;;;;;5019994;28;20121;-65
2022/08/07 04:27:26;;;;;;;;;;;15.90;95.20;;;;;;5028394;28;20225;-64
2022/08/07 04:29:54;;;;;;;;;;;15.90;95.10;;;;;;5028579;28;20195;-64
2022/08/07 04:32:29;;;;;;;;;;;15.80;95.30;;;;;;5028369;28;20209;-64
2022/08/07 04:35:02;;;;;;;;;;;15.90;95.10;;;;;;5030102;28;20195;-64
2022/08/07 04:37:33;;;;;;;;;;;15.90;95.10;;;;;;5027648;28;20203;-65
2022/08/07 04:40:21;;;;;;;;;;;15.90;95.00;;;;;;5028890;28;20230;-65
2022/08/07 04:42:57;;;;;;;;;;;15.90;95.10;;;;;;5027417;28;20208;-65
2022/08/07 04:45:34;;;;;;;;;;;16.00;95.40;;;;;;5028824;28;20199;-65
2022/08/07 04:48:26;;;;;;;;;;;16.00;95.50;;;;;;5027599;28;20220;-65
2022/08/07 04:50:59;;;;;;;;;;;16.00;95.30;;;;;;5031210;28;20107;-65
2022/08/07 04:53:34;;;;;;;;;;;16.10;95.30;;;;;;5027485;28;20853;-65
2022/08/07 04:56:26;;;;;;;;;;;16.10;95.50;;;;;;5030034;28;20273;-65
2022/08/07 04:59:17;;;;;;;;;;;16.10;95.60;;;;;;5028621;28;20219;-65
2022/08/07 05:02:07;;;;;;;;;;;16.10;95.70;;;;;;5023048;28;20139;-65
2022/08/07 05:04:46;;;;;;;;;;;16.20;95.60;;;;;;5033433;28;20716;-65
2022/08/07 05:07:19;;;;;;;;;;;16.30;95.20;;;;;;5031083;28;20194;-65
2022/08/07 05:09:55;;;;;;;;;;;16.40;95.20;;;;;;5027680;28;20306;-65
2022/08/07 05:12:26;;;;;;;;;;;16.50;95.30;;;;;;5031993;28;20111;-65
2022/08/07 05:15:01;;;;;;;;;;;16.60;95.30;;;;;;5031973;28;20261;-65
2022/08/07 05:17:32;;;;;;;;;;;16.70;95.10;;;;;;5029829;28;20220;-64
2022/08/07 05:20:23;;;;;;;;;;;16.70;94.90;;;;;;5031823;28;20675;-64
2022/08/07 05:22:54;;;;;;;;;;;16.90;94.60;;;;;;5022629;28;20219;-63
2022/08/07 05:25:23;;;;;;;;;;;17.00;94.10;;;;;;5034138;28;20137;-66
2022/08/07 05:28:12;;;;;;;;;;;17.10;93.70;;;;;;5029587;28;20805;-66
2022/08/07 05:30:51;;;;;;;;;;;17.20;93.60;;;;;;5028358;28;25139;-66
2022/08/07 05:33:19;;;;;;;;;;;17.40;93.70;;;;;;5027337;28;20137;-66
2022/08/07 05:35:49;;;;;;;;;;;17.50;93.80;;;;;;5034053;28;20216;-66
2022/08/07 05:38:17;;;;;;;;;;;17.50;93.40;;;;;;5028153;28;20199;-66
2022/08/07 05:41:05;;;;;;;;;;;17.60;93.50;;;;;;5030236;28;20248;-65
2022/08/07 05:43:45;;;;;;;;;;;17.70;92.80;;;;;;5023135;28;20198;-66
2022/08/07 05:46:36;;;;;;;;;;;17.80;92.80;;;;;;5029614;28;20191;-66
2022/08/07 05:49:05;;;;;;;;;;;17.90;92.40;;;;;;5044661;28;20199;-66
2022/08/07 05:51:39;;;;;;;;;;;18.00;92.40;;;;;;5025839;28;20662;-66
2022/08/07 05:54:09;;;;;;;;;;;18.10;92.40;;;;;;5026216;28;20230;-67
2022/08/07 05:56:57;;;;;;;;;;;18.20;92.20;;;;;;5024897;28;20199;-68
2022/08/07 05:59:26;;;;;;;;;;;18.30;92.00;;;;;;5026438;28;20198;-64
2022/08/07 06:01:56;;;;;;;;;;;18.40;92.20;;;;;;5027371;28;20198;-66
2022/08/07 06:04:27;;;;;;;;;;;18.50;92.00;;;;;;5028477;28;20222;-65
2022/08/07 06:06:58;;;;;;;;;;;18.60;91.40;;;;;;5027434;28;20254;-68
2022/08/07 06:09:31;;;;;;;;;;;18.70;92.00;;;;;;5029567;28;20221;-66
2022/08/07 06:12:19;;;;;;;;;;;18.70;91.40;;;;;;5026674;28;20665;-66
2022/08/07 06:14:58;;;;;;;;;;;18.90;91.50;;;;;;5030887;28;20260;-66
2022/08/07 06:17:34;;;;;;;;;;;19.00;91.10;;;;;;5034962;28;20194;-66
2022/08/07 06:20:06;;;;;;;;;;;19.00;90.80;;;;;;5035069;28;20697;-65
2022/08/07 06:22:52;;;;;;;;;;;19.10;91.00;;;;;;5035590;28;20600;-67
2022/08/07 06:25:41;;;;;;;;;;;19.10;91.00;;;;;;5035242;28;20297;-66
2022/08/07 06:28:21;;;;;;;;;;;19.10;90.80;;;;;;5035296;28;20234;-66
2022/08/07 06:30:54;;;;;;;;;;;19.20;90.80;;;;;;5034704;28;20195;-66
2022/08/07 06:33:24;;;;;;;;;;;19.30;90.80;;;;;;5036114;28;20321;-66
2022/08/07 06:35:51;;;;;;;;;;;19.40;91.00;;;;;;5035731;28;20202;-66
2022/08/07 06:38:39;;;;;;;;;;;19.50;90.30;;;;;;5035695;28;20253;-66
2022/08/07 06:41:29;;;;;;;;;;;19.60;90.60;;;;;;5035540;28;20230;-67
2022/08/07 06:44:18;;;;;;;;;;;19.50;90.40;;;;;;5036064;28;20225;-66
2022/08/07 06:46:47;;;;;;;;;;;19.60;90.10;;;;;;5036215;28;20297;-66
2022/08/07 06:49:36;;;;;;;;;;;19.70;90.10;;;;;;5035361;28;20199;-67
2022/08/07 06:52:19;;;;;;;;;;;19.80;90.50;;;;;;5035040;28;20205;-66
2022/08/07 06:55:02;;;;;;;;;;;20.00;89.80;;;;;;5034875;28;20199;-66
2022/08/07 06:57:51;;;;;;;;;;;20.00;89.80;;;;;;5034910;28;20216;-66
2022/08/07 07:00:24;;;;;;;;;;;20.00;89.60;;;;;;5034350;28;20099;-64
2022/08/07 07:02:55;;;;;;;;;;;20.10;90.10;;;;;;5034797;28;20223;-64
2022/08/07 07:05:29;;;;;;;;;;;20.30;90.00;;;;;;5034610;28;20198;-64
2022/08/07 07:08:17;;;;;;;;;;;20.40;89.50;;;;;;5034870;28;20226;-63
2022/08/07 07:10:53;;;;;;;;;;;20.40;89.20;;;;;;5034683;28;20616;-64
2022/08/07 07:13:28;;;;;;;;;;;20.50;88.40;;;;;;5034535;28;20214;-64
2022/08/07 07:16:17;;;;;;;;;;;20.40;88.20;;;;;;5034249;28;20199;-64
2022/08/07 07:18:49;;;;;;;;;;;20.40;88.40;;;;;;5034566;28;20202;-64
2022/08/07 07:21:20;;;;;;;;;;;20.40;88.40;;;;;;5034049;28;20194;-64
2022/08/07 07:23:54;;;;;;;;;;;20.50;87.80;;;;;;5033838;28;20214;-64
2022/08/07 07:26:39;;;;;;;;;;;20.50;88.10;;;;;;5034259;28;20233;-65
2022/08/07 07:29:10;;;;;;;;;;;20.60;88.30;;;;;;5034245;28;20199;-64
2022/08/07 07:31:59;;;;;;;;;;;20.70;88.70;;;;;;5033865;28;20290;-64
2022/08/07 07:34:29;;;;;;;;;;;20.90;87.90;;;;;;5033955;28;20257;-64
2022/08/07 07:37:00;;;;;;;;;;;21.10;87.70;;;;;;5033982;28;20277;-64
2022/08/07 07:39:49;;;;;;;;;;;21.10;87.20;;;;;;5033878;28;20281;-64
2022/08/07 07:42:23;;;;;;;;;;;21.20;87.20;;;;;;5034037;28;20282;-64
2022/08/07 07:45:00;;;;;;;;;;;21.40;87.30;;;;;;5033604;28;20218;-64
2022/08/07 07:47:29;;;;;;;;;;;21.30;85.90;;;;;;5033874;28;20199;-65
2022/08/07 07:50:17;;;;;;;;;;;21.20;86.70;;;;;;5033677;28;20272;-64
2022/08/07 07:53:07;;;;;;;;;;;21.30;86.20;;;;;;5033878;28;20280;-64
2022/08/07 07:55:50;;;;;;;;;;;21.40;86.60;;;;;;5033837;28;20597;-64
2022/08/07 07:58:29;;;;;;;;;;;21.60;86.70;;;;;;5033762;28;20203;-64
2022/08/07 08:01:04;;;;;;;;;;;21.90;85.80;;;;;;5033502;28;20202;-64
2022/08/07 08:03:53;;;;;;;;;;;21.70;85.00;;;;;;5033685;28;20755;-64
2022/08/07 08:06:38;;;;;;;;;;;21.70;85.40;;;;;;5033617;28;20199;-64
2022/08/07 08:09:07;;;;;;;;;;;21.90;86.00;;;;;;5033437;28;20525;-64
2022/08/07 08:11:40;;;;;;;;;;;22.20;86.10;;;;;;5033369;28;20590;-64
2022/08/07 08:14:27;;;;;;;;;;;22.40;85.00;;;;;;5033106;28;20199;-64
2022/08/07 08:16:56;;;;;;;;;;;22.50;84.80;;;;;;5033832;28;20676;-64
2022/08/07 08:19:44;;;;;;;;;;;22.60;84.90;;;;;;5033128;28;20621;-65
2022/08/07 08:28:32;;;;;;;;;;;22.80;83.10;;;;;;4991422;28;20258;-64
2022/08/07 08:31:07;;;;;;;;;;;22.90;83.60;;;;;;5019134;28;20290;-64
2022/08/07 08:33:43;;;;;;;;;;;23.00;84.20;;;;;;5033028;28;20236;-64
2022/08/07 08:36:24;;;;;;;;;;;23.30;84.50;;;;;;5032975;28;20194;-64
2022/08/07 08:38:59;;;;;;;;;;;23.40;83.30;;;;;;5032945;28;20234;-64
2022/08/07 08:41:34;;;;;;;;;;;23.40;83.30;;;;;;5032695;28;20271;-64
2022/08/07 08:44:25;;;;;;;;;;;23.50;83.90;;;;;;5032643;28;20203;-64
2022/08/07 08:47:02;;;;;;;;;;;23.60;82.60;;;;;;5032777;28;20219;-64
2022/08/07 08:49:33;;;;;;;;;;;23.60;83.20;;;;;;5032628;28;20277;-64
2022/08/07 08:52:16;;;;;;;;;;;23.70;83.20;;;;;;5032686;28;20285;-65
2022/08/07 08:54:49;;;;;;;;;;;23.60;83.80;;;;;;5032397;28;20225;-64
2022/08/07 08:57:23;;;;;;;;;;;23.60;84.00;;;;;;5032672;28;20728;-64
2022/08/07 08:59:56;;;;;;;;;;;23.80;83.60;;;;;;5032382;28;20230;-64
2022/08/07 09:02:31;;;;;;;;;;;24.10;84.30;;;;;;5032680;28;20202;-65
2022/08/07 09:05:13;;;;;;;;;;;24.40;83.80;;;;;;5032200;28;20207;-65
2022/08/07 09:07:45;;;;;;;;;;;24.60;84.10;;;;;;5032522;28;20201;-64
2022/08/07 09:10:27;;;;;;;;;;;24.60;82.00;;;;;;5032188;28;20206;-64
2022/08/07 09:13:01;;;;;;;;;;;24.60;82.30;;;;;;5032437;28;20273;-65
2022/08/07 09:15:37;;;;;;;;;;;24.70;82.50;;;;;;5032215;28;20206;-64
2022/08/07 09:18:36;;;;;;;;;;;24.50;82.10;;;;;;5032217;28;20207;-65
2022/08/07 09:21:10;;;;;;;;;;;24.70;82.80;;;;;;5032170;28;20703;-64
2022/08/07 09:24:02;;;;;;;;;;;25.10;83.70;;;;;;5055622;23;20237;-66
2022/08/07 09:26:53;;;;;;;;;;;25.00;82.00;;;;;;5006263;28;20254;-64
2022/08/07 09:29:29;;;;;;;;;;;25.20;82.70;;;;;;5012459;28;20200;-64
2022/08/07 09:32:22;;;;;;;;;;;25.30;81.60;;;;;;5012096;28;20643;-64
2022/08/07 09:34:58;;;;;;;;;;;25.30;82.70;;;;;;5036459;28;20211;-64
2022/08/07 09:37:36;;;;;;;;;;;25.60;82.70;;;;;;5032369;28;20226;-64
2022/08/07 09:40:23;;;;;;;;;;;25.90;82.40;;;;;;5032097;28;20839;-64
2022/08/07 09:42:56;;;;;;;;;;;26.20;83.20;;;;;;5031509;28;20234;-64
2022/08/07 09:45:34;;;;;;;;;;;26.20;81.30;;;;;;5032127;28;20195;-64
2022/08/07 09:48:36;;;;;;;;;;;26.20;82.20;;;;;;5031971;28;20226;-65
2022/08/07 09:51:37;;;;;;;;;;;26.60;82.00;;;;;;5031771;28;20257;-64
2022/08/07 09:54:28;;;;;;;;;;;26.70;81.20;;;;;;5031907;28;20234;-64
2022/08/07 09:57:11;;;;;;;;;;;26.50;81.40;;;;;;5032073;28;20207;-64
2022/08/07 09:59:53;;;;;;;;;;;26.40;82.00;;;;;;4989817;28;20237;-64
2022/08/07 10:02:45;;;;;;;;;;;26.60;81.30;;;;;;5031928;28;20207;-64
2022/08/07 10:05:27;;;;;;;;;;;26.50;81.90;;;;;;5032058;28;20198;-64
2022/08/07 10:08:35;;;;;;;;;;;26.80;81.50;;;;;;5031614;28;20620;-65
2022/08/07 10:11:06;;;;;;;;;;;27.00;80.60;;;;;;5032000;28;20207;-64
2022/08/07 10:14:00;;;;;;;;;;;27.50;80.60;;;;;;5031987;28;20289;-65
2022/08/07 10:16:35;;;;;;;;;;;27.70;79.80;;;;;;5032119;28;20626;-65
2022/08/07 10:19:29;;;;;;;;;;;27.90;78.90;;;;;;5032054;28;20214;-64
2022/08/07 10:22:12;;;;;;;;;;;27.80;79.80;;;;;;5031977;28;20206;-65
2022/08/07 10:24:50;;;;;;;;;;;27.90;79.60;;;;;;5031836;28;20211;-65
2022/08/07 10:27:28;;;;;;;;;;;27.70;78.20;;;;;;5031969;28;20226;-65
2022/08/07 10:30:14;;;;;;;;;;;27.70;78.70;;;;;;5031591;28;20203;-65
2022/08/07 10:32:52;;;;;;;;;;;28.20;77.60;;;;;;5031536;28;20214;-64
2022/08/07 10:35:30;;;;;;;;;;;28.10;78.90;;;;;;5032069;28;20727;-65
2022/08/07 10:38:32;;;;;;;;;;;28.00;77.10;;;;;;5032066;28;20230;-65
2022/08/07 10:41:15;;;;;;;;;;;27.90;78.20;;;;;;5032422;28;20207;-65
2022/08/07 10:44:07;;;;;;;;;;;28.20;77.30;;;;;;5031874;28;20257;-65
2022/08/07 10:46:38;;;;;;;;;;;28.50;75.60;;;;;;5031805;28;20577;-65
2022/08/07 10:49:13;;;;;;;;;;;28.80;75.50;;;;;;5032023;28;20203;-64
2022/08/07 10:51:48;;;;;;;;;;;28.80;75.80;;;;;;5031865;28;20210;-65
2022/08/07 10:54:41;;;;;;;;;;;29.30;75.60;;;;;;5032442;28;20618;-65
2022/08/07 10:57:24;;;;;;;;;;;29.30;73.70;;;;;;5035645;28;20202;-65
2022/08/07 11:00:08;;;;;;;;;;;29.30;73.40;;;;;;5035184;28;20206;-65
2022/08/07 11:02:58;;;;;;;;;;;29.40;73.30;;;;;;5035484;28;20203;-65
2022/08/07 11:05:30;;;;;;;;;;;29.20;72.50;;;;;;5035579;28;20212;-64
2022/08/07 11:08:21;;;;;;;;;;;29.10;73.60;;;;;;5035413;28;20231;-65
2022/08/07 11:10:59;;;;;;;;;;;29.00;72.70;;;;;;5034991;28;20203;-65
2022/08/07 11:13:30;;;;;;;;;;;28.90;72.80;;;;;;5035007;28;20207;-65
2022/08/07 11:16:20;;;;;;;;;;;29.00;72.80;;;;;;5035056;28;20195;-65
2022/08/07 11:19:01;;;;;;;;;;;29.30;71.70;;;;;;5035373;28;20666;-65
2022/08/07 11:21:35;;;;;;;;;;;29.40;72.10;;;;;;5035098;28;20287;-65
2022/08/07 11:24:15;;;;;;;;;;;29.30;70.70;;;;;;5034824;28;20207;-65
2022/08/07 11:26:47;;;;;;;;;;;29.20;71.70;;;;;;5035107;28;20664;-65
2022/08/07 11:29:19;;;;;;;;;;;29.10;71.80;;;;;;5034975;28;20664;-65
2022/08/07 11:32:10;;;;;;;;;;;29.30;72.00;;;;;;5034847;28;20226;-65
2022/08/07 11:34:39;;;;;;;;;;;29.60;71.60;;;;;;5034875;28;20199;-66
2022/08/07 11:37:12;;;;;;;;;;;30.00;71.50;;;;;;5035112;28;20735;-65
2022/08/07 11:39:59;;;;;;;;;;;30.20;71.50;;;;;;5034767;28;20206;-65
2022/08/07 11:42:36;;;;;;;;;;;30.50;69.70;;;;;;5034485;28;20213;-65
2022/08/07 11:45:12;;;;;;;;;;;30.90;68.60;;;;;;5035078;28;20202;-65
2022/08/07 11:47:47;;;;;;;;;;;31.10;68.90;;;;;;5034460;28;20202;-65
2022/08/07 11:50:31;;;;;;;;;;;30.40;68.70;;;;;;5034111;28;20218;-65
2022/08/07 11:53:09;;;;;;;;;;;29.60;68.60;;;;;;5034507;28;20230;-65
2022/08/07 11:55:53;;;;;;;;;;;29.40;68.80;;;;;;5034544;28;20249;-65
2022/08/07 11:58:44;;;;;;;;;;;29.70;69.40;;;;;;5034693;28;20198;-65
2022/08/07 12:01:26;;;;;;;;;;;30.30;69.80;;;;;;5033777;28;20209;-65
2022/08/07 12:04:22;;;;;;;;;;;30.20;67.70;;;;;;5034343;28;20281;-65
2022/08/07 12:06:54;;;;;;;;;;;30.10;67.60;;;;;;5033164;28;20285;-65
2022/08/07 12:09:34;;;;;;;;;;;29.90;66.40;;;;;;5033893;28;20203;-64
2022/08/07 12:12:08;;;;;;;;;;;29.80;67.40;;;;;;5034271;28;20207;-65
2022/08/07 12:14:43;;;;;;;;;;;30.10;66.90;;;;;;5033983;28;20273;-65
2022/08/07 12:17:24;;;;;;;;;;;29.80;67.40;;;;;;5034144;28;20205;-65
2022/08/07 12:19:54;;;;;;;;;;;30.10;68.90;;;;;;5033581;28;20203;-65
2022/08/07 12:22:36;;;;;;;;;;;30.50;67.60;;;;;;5033463;28;20195;-66
2022/08/07 12:28:42;;;;;;;;;;;30.40;66.20;;;;;;5013935;28;20963;-65
2022/08/07 12:31:21;;;;;;;;;;;29.80;66.80;;;;;;5013209;28;20209;-65
2022/08/07 12:33:51;;;;;;;;;;;30.60;66.00;;;;;;5013870;28;20669;-65
2022/08/07 12:36:29;;;;;;;;;;;31.10;66.60;;;;;;5013805;28;20196;-65
2022/08/07 12:39:02;;;;;;;;;;;31.20;65.30;;;;;;5013420;28;20494;-66
2022/08/07 12:41:36;;;;;;;;;;;30.50;63.50;;;;;;5013185;28;20669;-65
2022/08/07 12:44:20;;;;;;;;;;;30.30;64.10;;;;;;5013713;28;20199;-65
2022/08/07 12:46:57;;;;;;;;;;;31.00;64.00;;;;;;5013576;28;20199;-65
2022/08/07 12:49:32;;;;;;;;;;;31.30;63.20;;;;;;5013186;28;20290;-65
2022/08/07 12:52:16;;;;;;;;;;;31.70;63.10;;;;;;5013144;28;20657;-66
2022/08/07 12:54:51;;;;;;;;;;;31.90;62.80;;;;;;5012994;28;20207;-65
2022/08/07 12:57:24;;;;;;;;;;;31.70;63.60;;;;;;5013077;28;20227;-65
2022/08/07 13:00:08;;;;;;;;;;;31.60;62.50;;;;;;5012834;28;20217;-67
2022/08/07 13:03:01;;;;;;;;;;;31.80;63.00;;;;;;5012863;28;20203;-65
2022/08/07 13:05:38;;;;;;;;;;;32.30;63.00;;;;;;5012973;28;20237;-66
2022/08/07 13:08:36;;;;;;;;;;;32.90;61.80;;;;;;5013210;28;20230;-66
2022/08/07 13:11:14;;;;;;;;;;;32.70;60.60;;;;;;5012675;28;20203;-65
2022/08/07 13:13:51;;;;;;;;;;;32.80;62.50;;;;;;5012957;28;20553;-65
2022/08/07 13:16:29;;;;;;;;;;;33.30;59.70;;;;;;5012593;28;20208;-66
2022/08/07 13:19:00;;;;;;;;;;;33.40;58.90;;;;;;5012517;28;20270;-66
2022/08/07 13:21:31;;;;;;;;;;;32.60;60.70;;;;;;5012217;28;20282;-66
2022/08/07 13:24:23;;;;;;;;;;;32.00;60.80;;;;;;5012418;28;20294;-65
2022/08/07 13:26:57;;;;;;;;;;;31.40;61.10;;;;;;5012615;28;20258;-66
2022/08/07 13:29:33;;;;;;;;;;;31.60;61.20;;;;;;5012482;28;20199;-65
2022/08/07 13:32:05;;;;;;;;;;;32.10;61.20;;;;;;5011941;28;20203;-65
2022/08/07 13:34:56;;;;;;;;;;;32.10;60.40;;;;;;5012828;28;20747;-65
2022/08/07 13:37:27;;;;;;;;;;;32.20;60.20;;;;;;5012540;28;20587;-66
2022/08/07 13:40:02;;;;;;;;;;;31.90;60.60;;;;;;5012448;28;20286;-65
2022/08/07 13:42:51;;;;;;;;;;;31.70;60.30;;;;;;5012316;28;20298;-66
2022/08/07 13:45:20;;;;;;;;;;;32.00;59.50;;;;;;5012282;28;20195;-66
2022/08/07 13:48:10;;;;;;;;;;;32.10;59.30;;;;;;5012329;28;20231;-66
2022/08/07 13:50:58;;;;;;;;;;;32.60;59.50;;;;;;5012023;28;20203;-65
2022/08/07 13:53:30;;;;;;;;;;;33.10;59.70;;;;;;5012358;28;20176;-66
2022/08/07 13:56:18;;;;;;;;;;;33.20;58.10;;;;;;5012720;28;20223;-65
2022/08/07 13:59:04;;;;;;;;;;;33.20;57.10;;;;;;5012647;28;20206;-66
2022/08/07 14:01:43;;;;;;;;;;;33.00;57.30;;;;;;5012362;28;20162;-65
2022/08/07 14:04:32;;;;;;;;;;;33.10;58.10;;;;;;5012369;28;20219;-66
2022/08/07 14:07:05;;;;;;;;;;;33.50;58.20;;;;;;5012543;28;20190;-66
2022/08/07 14:09:39;;;;;;;;;;;33.10;58.10;;;;;;5011986;28;20703;-65
2022/08/07 14:12:30;;;;;;;;;;;32.70;57.40;;;;;;5012166;28;20266;-66
2022/08/07 14:15:04;;;;;;;;;;;32.40;57.80;;;;;;5011983;28;20208;-66
2022/08/07 14:17:35;;;;;;;;;;;32.20;57.00;;;;;;5012135;28;20608;-66
2022/08/07 14:20:26;;;;;;;;;;;32.10;57.30;;;;;;5011736;28;20737;-66
2022/08/07 14:23:14;;;;;;;;;;;32.00;57.10;;;;;;5012133;28;20209;-65
2022/08/07 14:26:07;;;;;;;;;;;31.70;57.30;;;;;;5011628;28;20207;-66
2022/08/07 14:28:56;;;;;;;;;;;32.30;57.10;;;;;;5011728;28;20195;-65
2022/08/07 14:31:32;;;;;;;;;;;32.80;56.00;;;;;;5015322;28;20203;-65
2022/08/07 14:34:20;;;;;;;;;;;33.20;57.70;;;;;;5015737;28;20627;-66
2022/08/07 14:36:58;;;;;;;;;;;33.40;56.10;;;;;;5015702;28;20211;-66
2022/08/07 14:39:29;;;;;;;;;;;33.70;57.00;;;;;;5015672;28;20159;-65
2022/08/07 14:42:22;;;;;;;;;;;33.50;55.90;;;;;;5015630;28;20208;-65
2022/08/07 14:44:52;;;;;;;;;;;33.70;56.00;;;;;;5015531;28;20186;-65
2022/08/07 14:47:30;;;;;;;;;;;34.20;55.90;;;;;;5015346;28;20207;-66
2022/08/07 14:50:04;;;;;;;;;;;34.40;56.00;;;;;;5015170;28;20285;-65
2022/08/07 14:52:39;;;;;;;;;;;33.60;55.30;;;;;;5015550;28;20177;-65
2022/08/07 14:55:09;;;;;;;;;;;33.10;56.40;;;;;;5015211;28;20242;-65
2022/08/07 14:57:47;;;;;;;;;;;33.10;56.20;;;;;;5014756;28;20653;-65
2022/08/07 15:00:27;;;;;;;;;;;32.50;56.60;;;;;;5015277;28;20293;-66
2022/08/07 15:02:57;;;;;;;;;;;32.20;56.30;;;;;;5015208;28;20293;-66
2022/08/07 15:05:26;;;;;;;;;;;31.80;56.70;;;;;;5015103;28;20199;-65
2022/08/07 15:08:21;;;;;;;;;;;31.80;56.80;;;;;;5015064;28;20753;-65
2022/08/07 15:11:01;;;;;;;;;;;31.70;57.20;;;;;;5014779;28;20205;-65
2022/08/07 15:13:32;;;;;;;;;;;32.20;56.60;;;;;;5015464;28;20191;-66
2022/08/07 15:16:06;;;;;;;;;;;32.00;56.20;;;;;;5015455;28;20202;-65
2022/08/07 15:18:40;;;;;;;;;;;31.70;56.60;;;;;;5015596;28;20203;-66
2022/08/07 15:21:12;;;;;;;;;;;31.70;56.80;;;;;;5014597;28;20259;-66
2022/08/07 15:24:03;;;;;;;;;;;31.60;56.60;;;;;;5015786;28;20242;-65
2022/08/07 15:26:55;;;;;;;;;;;31.70;57.20;;;;;;5030586;28;20194;-65
2022/08/07 15:29:30;;;;;;;;;;;31.00;56.00;;;;;;5033943;28;20238;-66